Time;durP1;ratioP1;P1;durP2;ratioP2;P2;SDS_P1;SDS_P2;PMS_P1;PMS_P2;Temp;Humidity;BMP_temperature;BMP_pressure;BME280_temperature;BME280_humidity;BME280_pressure;Samples;Min_cycle;Max_cycle;Signal;HPM_P1;HPM_P2
2023/11/14 00:00:20;;;;;;;5.60;2.17;;;10.70;91.70;;;;;;5069691;28;20474;-48
2023/11/14 00:02:49;;;;;;;4.67;2.20;;;10.70;91.70;;;;;;5071756;28;20498;-46
2023/11/14 00:05:18;;;;;;;7.40;2.67;;;10.70;91.70;;;;;;5067339;28;20521;-47
2023/11/14 00:07:46;;;;;;;6.53;2.33;;;10.70;91.70;;;;;;5069370;28;20509;-45
2023/11/14 00:10:14;;;;;;;5.90;2.33;;;10.70;91.70;;;;;;5063836;28;20476;-45
2023/11/14 00:12:43;;;;;;;5.30;2.30;;;10.70;91.60;;;;;;5068877;28;20439;-47
2023/11/14 00:15:11;;;;;;;4.03;1.90;;;10.70;91.70;;;;;;5069844;28;20471;-47
2023/11/14 00:17:41;;;;;;;5.47;2.40;;;10.70;91.70;;;;;;5068644;28;20469;-46
2023/11/14 00:20:15;;;;;;;7.00;1.70;;;10.70;91.70;;;;;;5067099;28;20474;-49
2023/11/14 00:22:43;;;;;;;8.10;3.10;;;10.70;91.70;;;;;;5068120;28;20427;-46
2023/11/14 00:25:11;;;;;;;5.97;2.03;;;10.70;91.70;;;;;;5064943;28;20478;-50
2023/11/14 00:27:39;;;;;;;6.20;2.60;;;10.70;91.70;;;;;;5067873;28;20976;-48
2023/11/14 00:30:10;;;;;;;7.83;2.37;;;10.70;91.70;;;;;;5069518;28;20469;-47
2023/11/14 00:32:38;;;;;;;8.30;1.87;;;10.70;91.70;;;;;;5069756;28;20960;-47
2023/11/14 00:35:07;;;;;;;4.23;2.20;;;10.70;91.70;;;;;;5062261;28;20979;-47
2023/11/14 00:37:37;;;;;;;7.50;2.50;;;10.70;91.70;;;;;;5069319;28;20532;-47
2023/11/14 00:40:06;;;;;;;7.63;2.73;;;10.70;91.80;;;;;;5064678;27;20576;-46
2023/11/14 00:42:34;;;;;;;6.00;2.50;;;10.70;91.70;;;;;;5068852;28;20454;-47
2023/11/14 00:45:02;;;;;;;7.10;2.20;;;10.70;91.70;;;;;;5067555;28;20990;-46
2023/11/14 00:47:31;;;;;;;6.13;2.10;;;10.70;91.70;;;;;;5068572;28;20456;-48
2023/11/14 00:49:59;;;;;;;6.40;2.00;;;10.70;91.70;;;;;;5067251;28;20572;-46
2023/11/14 00:52:27;;;;;;;5.00;1.90;;;10.70;91.60;;;;;;5068360;28;20434;-47
2023/11/14 00:54:57;;;;;;;9.63;1.93;;;10.70;91.60;;;;;;5064528;28;20484;-47
2023/11/14 00:57:25;;;;;;;5.93;1.90;;;10.70;91.60;;;;;;5067008;28;20825;-48
2023/11/14 00:59:54;;;;;;;5.00;2.57;;;10.70;91.60;;;;;;5060792;28;20470;-47
2023/11/14 01:02:22;;;;;;;6.77;2.17;;;10.70;91.60;;;;;;5066332;28;20971;-49
2023/11/14 01:04:50;;;;;;;6.07;1.83;;;10.70;91.60;;;;;;5065755;28;20482;-46
2023/11/14 01:07:18;;;;;;;6.60;2.47;;;10.70;91.70;;;;;;5068906;28;20548;-49
2023/11/14 01:09:47;;;;;;;5.20;2.30;;;10.70;91.60;;;;;;5061051;28;21104;-46
2023/11/14 01:12:16;;;;;;;5.93;2.03;;;10.70;91.60;;;;;;5070066;28;20435;-46
2023/11/14 01:14:44;;;;;;;8.63;2.30;;;10.70;91.60;;;;;;5068847;28;20462;-50
2023/11/14 01:17:12;;;;;;;6.83;2.33;;;10.70;91.60;;;;;;5069324;28;21062;-48
2023/11/14 01:19:44;;;;;;;9.97;2.77;;;10.70;91.60;;;;;;5060106;28;20479;-48
2023/11/14 01:22:13;;;;;;;6.43;2.50;;;10.70;91.60;;;;;;5067071;28;20461;-49
2023/11/14 01:24:42;;;;;;;4.00;1.77;;;10.70;91.60;;;;;;5063534;28;20580;-48
2023/11/14 01:27:10;;;;;;;7.20;2.10;;;10.70;91.50;;;;;;5066553;28;20825;-47
2023/11/14 01:29:39;;;;;;;7.10;2.43;;;10.70;91.50;;;;;;5065980;28;20475;-46
2023/11/14 01:32:08;;;;;;;4.30;1.77;;;10.70;91.60;;;;;;5070111;28;20514;-48
2023/11/14 01:34:36;;;;;;;7.93;2.10;;;10.70;91.50;;;;;;5064448;28;20453;-48
2023/11/14 01:37:05;;;;;;;4.33;2.13;;;10.70;91.50;;;;;;5067692;28;20504;-45
2023/11/14 01:39:33;;;;;;;8.37;2.20;;;10.70;91.60;;;;;;5058140;28;21034;-48
2023/11/14 01:42:01;;;;;;;5.73;2.50;;;10.70;91.50;;;;;;5067155;28;20466;-47
2023/11/14 01:44:30;;;;;;;8.43;3.47;;;10.70;91.50;;;;;;5068241;28;20477;-47
2023/11/14 01:46:59;;;;;;;5.23;2.17;;;10.70;91.50;;;;;;5069018;28;20998;-48
2023/11/14 01:49:28;;;;;;;8.00;2.27;;;10.70;91.60;;;;;;5063360;28;20850;-48
2023/11/14 01:51:57;;;;;;;10.13;2.60;;;10.70;91.60;;;;;;5066568;28;20431;-48
2023/11/14 01:54:25;;;;;;;6.13;2.00;;;10.70;91.60;;;;;;5062483;28;21007;-48
2023/11/14 01:56:54;;;;;;;5.30;1.60;;;10.70;91.60;;;;;;5061401;28;20824;-47
2023/11/14 01:59:23;;;;;;;5.77;1.97;;;10.70;91.50;;;;;;5066344;28;20459;-50
2023/11/14 02:01:53;;;;;;;8.00;2.13;;;10.70;91.50;;;;;;5067139;28;20479;-49
2023/11/14 02:04:25;;;;;;;7.30;2.80;;;10.70;91.50;;;;;;5062282;28;20481;-49
2023/11/14 02:06:59;;;;;;;4.63;2.00;;;10.70;91.50;;;;;;5059275;28;20468;-47
2023/11/14 02:09:27;;;;;;;6.00;1.57;;;10.70;91.60;;;;;;5061253;28;20474;-46
2023/11/14 02:11:56;;;;;;;6.53;1.90;;;10.70;91.40;;;;;;5060530;28;20426;-46
2023/11/14 02:14:24;;;;;;;10.27;2.93;;;10.70;91.50;;;;;;5067821;28;20842;-47
2023/11/14 02:16:55;;;;;;;4.43;1.87;;;10.70;91.50;;;;;;5061002;28;20508;-46
2023/11/14 02:19:24;;;;;;;4.77;2.63;;;10.70;91.50;;;;;;5064857;28;20617;-48
2023/11/14 02:21:55;;;;;;;7.57;2.47;;;10.70;91.50;;;;;;5058835;28;20469;-48
2023/11/14 02:24:24;;;;;;;5.27;2.17;;;10.70;91.50;;;;;;5063772;28;20961;-48
2023/11/14 02:26:53;;;;;;;7.50;1.87;;;10.70;91.50;;;;;;5067896;28;20862;-46
2023/11/14 02:29:25;;;;;;;7.87;2.47;;;10.70;91.50;;;;;;5067452;28;20465;-47
2023/11/14 02:31:54;;;;;;;7.13;2.07;;;10.70;91.60;;;;;;5080959;28;20802;-48
2023/11/14 02:34:22;;;;;;;4.60;2.37;;;10.70;91.50;;;;;;5060683;28;20471;-48
2023/11/14 02:36:51;;;;;;;10.27;2.77;;;10.70;91.60;;;;;;5066969;28;21028;-48
2023/11/14 02:39:20;;;;;;;4.03;2.00;;;10.70;91.60;;;;;;5062928;28;20475;-46
2023/11/14 02:41:48;;;;;;;6.10;2.17;;;10.70;92.00;;;;;;5067602;28;20461;-48
2023/11/14 02:44:18;;;;;;;4.90;2.77;;;10.70;91.50;;;;;;5066065;28;20843;-46
2023/11/14 02:46:49;;;;;;;6.70;2.40;;;10.70;91.50;;;;;;5064976;28;20461;-47
2023/11/14 02:49:50;;;;;;;6.90;2.10;;;10.70;92.00;;;;;;5067335;28;20460;-48
2023/11/14 02:52:18;;;;;;;7.00;3.03;;;10.70;91.50;;;;;;5063831;28;20535;-46
2023/11/14 02:54:47;;;;;;;7.30;2.33;;;10.70;91.50;;;;;;5061751;28;20848;-47
2023/11/14 02:57:15;;;;;;;8.43;2.57;;;10.70;91.50;;;;;;5068053;28;20844;-49
2023/11/14 02:59:53;;;;;;;4.40;1.90;;;10.70;91.50;;;;;;5058593;28;21285;-46
2023/11/14 03:02:22;;;;;;;4.63;2.07;;;10.70;91.50;;;;;;5066893;28;20466;-48
2023/11/14 03:04:51;;;;;;;10.10;2.80;;;10.70;91.50;;;;;;5064902;28;20506;-47
2023/11/14 03:07:19;;;;;;;7.00;2.33;;;10.70;91.50;;;;;;5065832;28;20466;-49
2023/11/14 03:09:47;;;;;;;9.20;2.90;;;10.70;91.50;;;;;;5060761;28;20479;-45
2023/11/14 03:12:15;;;;;;;9.53;1.97;;;10.70;91.50;;;;;;5067836;28;20788;-45
2023/11/14 03:14:44;;;;;;;6.10;2.63;;;10.70;91.60;;;;;;5066848;28;20481;-46
2023/11/14 03:17:14;;;;;;;6.57;2.73;;;10.70;91.50;;;;;;5061367;28;20474;-48
2023/11/14 03:19:42;;;;;;;7.03;2.13;;;10.70;91.50;;;;;;5062207;28;20812;-47
2023/11/14 03:22:11;;;;;;;8.40;2.60;;;10.70;91.50;;;;;;5066929;28;20506;-47
2023/11/14 03:24:39;;;;;;;5.37;2.53;;;10.70;91.50;;;;;;5061648;28;20477;-47
2023/11/14 03:27:08;;;;;;;4.10;1.67;;;10.70;91.50;;;;;;5068004;28;20466;-45
2023/11/14 03:29:36;;;;;;;6.10;3.03;;;10.70;91.50;;;;;;5064688;28;20511;-47
2023/11/14 03:32:04;;;;;;;6.20;2.30;;;10.70;91.50;;;;;;5070464;28;20933;-47
2023/11/14 03:34:35;;;;;;;8.17;2.97;;;10.70;91.60;;;;;;5065631;28;20462;-46
2023/11/14 03:37:06;;;;;;;7.80;2.17;;;10.70;91.50;;;;;;5070652;28;20537;-48
2023/11/14 03:39:35;;;;;;;4.77;2.10;;;10.70;91.50;;;;;;5066272;28;20471;-48
2023/11/14 03:42:03;;;;;;;9.50;2.40;;;10.70;91.50;;;;;;5072176;28;20458;-48
2023/11/14 03:44:31;;;;;;;7.23;2.40;;;10.70;91.50;;;;;;5070571;28;20474;-50
2023/11/14 03:46:59;;;;;;;11.53;2.70;;;10.70;91.50;;;;;;5069274;28;20462;-45
2023/11/14 03:49:27;;;;;;;5.13;1.93;;;10.70;91.50;;;;;;5063024;28;20470;-44
2023/11/14 03:51:57;;;;;;;4.03;2.20;;;10.70;91.40;;;;;;5064893;28;20473;-44
2023/11/14 03:54:25;;;;;;;9.37;2.53;;;10.70;91.50;;;;;;5066249;28;21319;-46
2023/11/14 03:56:53;;;;;;;6.60;2.60;;;10.70;91.40;;;;;;5062916;28;20485;-46
2023/11/14 03:59:23;;;;;;;8.37;2.80;;;10.70;91.40;;;;;;5067493;28;20466;-45
2023/11/14 04:01:52;;;;;;;6.50;2.20;;;10.70;91.40;;;;;;5070319;28;20503;-44
2023/11/14 04:04:21;;;;;;;10.10;2.03;;;10.70;91.50;;;;;;5058974;28;20502;-45
2023/11/14 04:06:49;;;;;;;5.87;2.20;;;10.70;91.40;;;;;;5068868;28;20655;-45
2023/11/14 04:09:18;;;;;;;8.00;2.30;;;10.70;91.40;;;;;;5064737;28;20576;-46
2023/11/14 04:11:47;;;;;;;5.70;2.03;;;10.70;91.40;;;;;;5067952;28;20437;-45
2023/11/14 04:14:15;;;;;;;8.93;1.97;;;10.70;92.00;;;;;;5068241;28;21073;-45
2023/11/14 04:16:44;;;;;;;6.23;2.37;;;10.70;91.40;;;;;;5069410;28;20818;-47
2023/11/14 04:19:12;;;;;;;5.50;2.10;;;10.70;91.40;;;;;;5067936;28;20492;-44
2023/11/14 04:21:40;;;;;;;5.87;2.43;;;10.70;91.40;;;;;;5069414;28;20431;-45
2023/11/14 04:24:09;;;;;;;9.90;2.13;;;10.70;91.40;;;;;;5066082;28;20484;-45
2023/11/14 04:26:41;;;;;;;6.20;2.30;;;10.70;91.40;;;;;;5067222;28;20475;-44
2023/11/14 04:29:09;;;;;;;6.27;1.97;;;10.70;91.40;;;;;;5064985;28;20466;-44
2023/11/14 04:31:40;;;;;;;6.00;2.20;;;10.70;91.40;;;;;;5067337;28;20454;-46
2023/11/14 04:34:09;;;;;;;6.77;2.10;;;10.70;91.40;;;;;;5063581;28;20481;-45
2023/11/14 04:36:37;;;;;;;7.60;2.90;;;10.70;91.40;;;;;;5070796;28;20474;-44
2023/11/14 04:39:05;;;;;;;9.43;2.90;;;10.70;91.40;;;;;;5067465;28;20463;-44
2023/11/14 04:41:33;;;;;;;5.53;2.27;;;10.70;91.50;;;;;;5068221;28;20439;-46
2023/11/14 04:44:06;;;;;;;4.37;1.57;;;10.70;91.50;;;;;;5070188;28;20473;-46
2023/11/14 04:46:37;;;;;;;7.03;3.50;;;10.70;91.70;;;;;;5067344;28;20462;-45
2023/11/14 04:49:07;;;;;;;5.43;1.63;;;10.70;91.50;;;;;;5064664;28;20460;-46
2023/11/14 04:51:35;;;;;;;7.57;2.40;;;10.70;91.40;;;;;;5069520;28;20441;-45
2023/11/14 04:54:04;;;;;;;8.60;2.33;;;10.70;91.40;;;;;;5067804;28;20466;-46
2023/11/14 04:56:32;;;;;;;8.43;1.93;;;10.70;91.40;;;;;;5067455;28;20803;-45
2023/11/14 04:59:00;;;;;;;5.60;1.63;;;10.70;91.40;;;;;;5069775;28;20532;-45
2023/11/14 05:01:29;;;;;;;6.00;2.00;;;10.70;91.40;;;;;;5069947;28;20546;-44
2023/11/14 05:03:57;;;;;;;5.60;1.70;;;10.70;91.40;;;;;;5066662;28;20975;-46
2023/11/14 05:06:26;;;;;;;2.60;1.50;;;10.70;91.40;;;;;;5070164;28;20443;-46
2023/11/14 05:08:56;;;;;;;5.10;1.80;;;10.70;91.40;;;;;;5062978;28;20466;-46
2023/11/14 05:11:31;;;;;;;5.93;2.30;;;10.70;91.40;;;;;;5065636;28;20438;-45
2023/11/14 05:14:02;;;;;;;8.60;2.07;;;10.70;91.50;;;;;;5062403;28;20489;-46
2023/11/14 05:16:38;;;;;;;5.03;2.03;;;10.70;91.40;;;;;;5069048;28;20944;-46
2023/11/14 05:19:06;;;;;;;3.73;1.87;;;10.70;91.30;;;;;;5068354;28;20607;-46
2023/11/14 05:21:34;;;;;;;5.13;2.20;;;10.70;91.40;;;;;;5068531;28;20456;-46
2023/11/14 05:24:02;;;;;;;12.20;3.07;;;10.70;91.50;;;;;;5067177;28;20474;-46
2023/11/14 05:26:30;;;;;;;7.73;2.10;;;10.70;91.40;;;;;;5061839;28;20960;-45
2023/11/14 05:28:58;;;;;;;3.27;1.50;;;10.70;91.60;;;;;;5069005;28;20870;-47
2023/11/14 05:31:27;;;;;;;6.67;2.30;;;10.70;91.40;;;;;;5066995;28;20442;-45
2023/11/14 05:33:56;;;;;;;5.70;2.30;;;10.70;91.60;;;;;;5061043;28;20462;-46
2023/11/14 05:36:24;;;;;;;5.80;1.90;;;10.70;91.50;;;;;;5068222;28;20458;-46
2023/11/14 05:38:52;;;;;;;8.37;1.73;;;10.70;91.50;;;;;;5068509;28;20489;-45
2023/11/14 05:41:21;;;;;;;10.17;2.90;;;10.70;91.40;;;;;;5064338;28;20609;-47
2023/11/14 05:43:49;;;;;;;9.40;2.90;;;10.70;91.50;;;;;;5068154;28;20472;-45
2023/11/14 05:46:20;;;;;;;5.60;2.60;;;10.70;91.50;;;;;;5069524;28;20456;-46
2023/11/14 05:48:48;;;;;;;6.20;2.30;;;10.70;91.50;;;;;;5064234;28;20482;-46
2023/11/14 05:51:20;;;;;;;7.87;2.33;;;10.70;91.50;;;;;;5064175;28;20854;-46
2023/11/14 05:53:49;;;;;;;8.23;2.90;;;10.70;91.60;;;;;;5068137;28;20475;-46
2023/11/14 05:56:17;;;;;;;6.80;2.33;;;10.70;91.50;;;;;;5063783;28;20469;-46
2023/11/14 05:58:45;;;;;;;7.00;2.73;;;10.70;91.60;;;;;;5066325;28;20599;-46
2023/11/14 06:01:14;;;;;;;6.60;2.53;;;10.70;91.50;;;;;;5068486;28;20466;-46
2023/11/14 06:03:42;;;;;;;5.10;2.23;;;10.70;91.60;;;;;;5062768;28;20490;-46
2023/11/14 06:06:10;;;;;;;4.97;2.23;;;10.70;91.60;;;;;;5063443;28;20464;-46
2023/11/14 06:08:39;;;;;;;7.17;2.30;;;10.70;91.50;;;;;;5068077;28;20529;-46
2023/11/14 06:11:08;;;;;;;6.67;2.50;;;10.70;91.50;;;;;;5063571;28;20457;-46
2023/11/14 06:13:38;;;;;;;4.10;1.77;;;10.70;91.60;;;;;;5068245;28;20490;-46
2023/11/14 06:16:08;;;;;;;5.93;2.30;;;10.70;91.50;;;;;;5069139;28;20532;-46
2023/11/14 06:18:36;;;;;;;11.20;2.70;;;10.70;91.50;;;;;;5064892;28;20462;-46
2023/11/14 06:21:05;;;;;;;6.80;2.27;;;10.70;91.50;;;;;;5067366;28;20824;-46
2023/11/14 06:23:33;;;;;;;12.20;2.83;;;10.70;91.50;;;;;;5067915;28;20595;-46
2023/11/14 06:26:05;;;;;;;6.73;2.20;;;10.70;91.50;;;;;;5064073;28;20458;-47
2023/11/14 06:28:35;;;;;;;5.50;2.70;;;10.70;91.40;;;;;;5068540;28;20465;-45
2023/11/14 06:31:03;;;;;;;7.00;2.60;;;10.70;91.60;;;;;;5066680;28;20407;-46
2023/11/14 06:33:32;;;;;;;5.23;1.87;;;10.70;91.50;;;;;;5060153;28;20463;-45
2023/11/14 06:36:01;;;;;;;6.50;2.30;;;10.70;91.40;;;;;;5069240;28;20596;-44
2023/11/14 06:38:29;;;;;;;4.80;1.97;;;10.70;91.40;;;;;;5068352;28;21063;-44
2023/11/14 06:41:02;;;;;;;4.60;1.90;;;10.70;91.40;;;;;;5055764;28;20446;-45
2023/11/14 06:43:30;;;;;;;7.17;2.20;;;10.70;91.50;;;;;;5068522;28;20983;-45
2023/11/14 06:45:59;;;;;;;7.70;2.03;;;10.70;91.60;;;;;;5066268;28;20428;-45
2023/11/14 06:48:27;;;;;;;7.07;2.50;;;10.70;91.60;;;;;;5065184;28;20459;-44
2023/11/14 06:50:55;;;;;;;7.03;3.10;;;10.70;91.50;;;;;;5060886;28;20435;-45
2023/11/14 06:53:24;;;;;;;5.43;2.50;;;10.70;91.40;;;;;;5068328;28;20471;-45
2023/11/14 06:55:52;;;;;;;6.10;2.47;;;10.70;91.50;;;;;;5063512;28;20442;-45
2023/11/14 06:58:24;;;;;;;6.03;1.50;;;10.70;91.50;;;;;;5067807;28;20484;-45
2023/11/14 07:00:52;;;;;;;4.97;2.10;;;10.70;91.50;;;;;;5067891;28;21013;-44
2023/11/14 07:03:20;;;;;;;6.60;2.67;;;10.70;91.30;;;;;;5061560;28;20452;-44
2023/11/14 07:05:49;;;;;;;5.90;2.03;;;10.70;91.40;;;;;;5070071;28;20505;-44
2023/11/14 07:08:23;;;;;;;9.57;2.40;;;10.70;91.40;;;;;;5067666;28;20435;-45
2023/11/14 07:10:52;;;;;;;4.97;1.90;;;10.70;91.50;;;;;;5051556;28;20438;-45
2023/11/14 07:13:20;;;;;;;5.23;2.20;;;10.70;91.50;;;;;;5070359;28;20488;-46
2023/11/14 07:15:49;;;;;;;5.37;2.37;;;10.70;91.40;;;;;;5053392;28;20437;-45
2023/11/14 07:18:17;;;;;;;6.07;2.20;;;10.70;91.50;;;;;;5059122;28;20478;-44
2023/11/14 07:20:48;;;;;;;9.57;2.00;;;10.70;91.60;;;;;;5065049;28;20854;-45
2023/11/14 07:23:17;;;;;;;3.60;1.53;;;10.70;91.50;;;;;;5064002;28;20476;-46
2023/11/14 07:25:46;;;;;;;10.43;2.80;;;10.70;91.40;;;;;;5062207;28;20475;-45
2023/11/14 07:28:14;;;;;;;5.33;2.20;;;10.70;91.60;;;;;;5066236;28;20430;-44
2023/11/14 07:30:43;;;;;;;7.43;1.90;;;10.70;91.50;;;;;;5063755;28;20459;-45
2023/11/14 07:33:13;;;;;;;6.10;2.17;;;10.70;91.50;;;;;;5057994;28;20467;-45
2023/11/14 07:35:41;;;;;;;8.13;1.97;;;10.70;91.60;;;;;;5057235;28;20790;-44
2023/11/14 07:38:12;;;;;;;5.37;1.87;;;10.70;91.50;;;;;;5052592;28;20586;-46
2023/11/14 07:40:40;;;;;;;5.53;2.40;;;10.70;91.50;;;;;;5061125;28;20874;-44
2023/11/14 07:43:09;;;;;;;5.40;2.10;;;10.70;91.50;;;;;;5058884;28;20814;-45
2023/11/14 07:45:38;;;;;;;8.03;2.00;;;10.70;91.60;;;;;;5059917;28;20467;-47
2023/11/14 07:48:07;;;;;;;5.80;2.67;;;10.70;91.60;;;;;;5062846;27;20944;-44
2023/11/14 07:50:37;;;;;;;6.27;1.87;;;10.70;91.60;;;;;;5060921;28;20496;-44
2023/11/14 07:53:08;;;;;;;7.03;1.83;;;10.70;91.60;;;;;;5065126;28;20473;-45
2023/11/14 07:55:37;;;;;;;5.23;2.10;;;10.70;91.60;;;;;;5063052;28;20435;-45
2023/11/14 07:58:05;;;;;;;4.00;2.17;;;10.70;91.60;;;;;;5071384;28;20534;-45
2023/11/14 08:00:33;;;;;;;5.67;2.30;;;10.70;91.60;;;;;;5062653;28;20434;-46
2023/11/14 08:03:02;;;;;;;8.40;2.57;;;10.70;91.50;;;;;;5051412;28;20433;-47
2023/11/14 08:05:33;;;;;;;6.03;2.40;;;10.70;91.40;;;;;;5060344;28;20999;-45
2023/11/14 08:08:03;;;;;;;8.20;2.27;;;10.70;91.50;;;;;;5066979;28;20504;-46
2023/11/14 08:10:32;;;;;;;5.53;2.07;;;10.80;91.40;;;;;;5057000;28;20947;-45
2023/11/14 08:13:00;;;;;;;11.57;2.80;;;10.70;91.30;;;;;;5054051;28;20431;-45
2023/11/14 08:15:28;;;;;;;3.93;1.67;;;10.70;91.20;;;;;;5060473;28;20542;-45
2023/11/14 08:17:56;;;;;;;6.40;1.87;;;10.70;91.30;;;;;;5059113;28;20619;-44
2023/11/14 08:20:27;;;;;;;3.53;1.40;;;10.70;91.30;;;;;;5062640;28;20961;-44
2023/11/14 08:22:56;;;;;;;7.07;1.20;;;10.70;91.40;;;;;;5052099;28;20856;-46
2023/11/14 08:25:25;;;;;;;3.80;1.40;;;10.70;91.40;;;;;;5059733;28;20466;-45
2023/11/14 08:27:56;;;;;;;3.93;1.97;;;10.80;91.30;;;;;;5059793;28;20439;-44
2023/11/14 08:30:27;;;;;;;5.20;1.77;;;10.70;91.30;;;;;;5054113;28;20539;-45
2023/11/14 08:32:55;;;;;;;7.97;2.03;;;10.70;91.50;;;;;;5052566;28;20532;-45
2023/11/14 08:35:25;;;;;;;6.53;1.50;;;10.70;91.50;;;;;;5051432;28;21024;-44
2023/11/14 08:37:54;;;;;;;4.70;2.40;;;10.70;91.20;;;;;;5070889;28;20439;-45
2023/11/14 08:40:28;;;;;;;5.90;2.07;;;10.70;91.40;;;;;;5055020;28;20562;-44
2023/11/14 08:42:57;;;;;;;7.47;2.20;;;10.70;91.40;;;;;;5051656;28;21208;-45
2023/11/14 08:45:30;;;;;;;5.30;1.60;;;10.70;91.40;;;;;;5050913;28;20483;-46
2023/11/14 08:48:00;;;;;;;6.03;2.10;;;10.70;91.40;;;;;;5052146;28;20979;-44
2023/11/14 08:50:29;;;;;;;3.50;1.60;;;10.70;91.30;;;;;;5053856;28;20455;-45
2023/11/14 08:52:58;;;;;;;3.50;1.30;;;10.70;91.40;;;;;;5051789;28;20789;-44
2023/11/14 08:55:27;;;;;;;4.37;1.43;;;10.70;91.40;;;;;;5050400;28;21107;-45
2023/11/14 08:57:55;;;;;;;6.30;2.00;;;10.80;91.50;;;;;;5055790;28;20478;-44
2023/11/14 09:00:24;;;;;;;7.83;2.00;;;10.80;91.50;;;;;;5057720;28;20468;-44
2023/11/14 09:02:52;;;;;;;8.50;2.60;;;10.80;91.60;;;;;;5059826;28;20823;-44
2023/11/14 09:05:20;;;;;;;9.37;2.70;;;10.80;93.60;;;;;;5058887;28;20471;-44
2023/11/14 09:07:51;;;;;;;10.00;2.57;;;10.80;94.30;;;;;;5061308;28;20463;-44
2023/11/14 09:10:27;;;;;;;8.80;2.30;;;10.90;94.80;;;;;;5052724;28;20475;-44
2023/11/14 09:12:56;;;;;;;7.47;2.40;;;10.90;93.50;;;;;;5059269;28;20473;-46
2023/11/14 09:15:27;;;;;;;6.93;2.60;;;10.90;93.20;;;;;;5051124;28;20448;-46
2023/11/14 09:17:55;;;;;;;8.83;2.90;;;10.90;93.00;;;;;;5050643;28;20463;-46
2023/11/14 09:20:26;;;;;;;10.03;2.70;;;10.90;92.70;;;;;;5050653;28;20504;-46
2023/11/14 09:22:55;;;;;;;6.10;2.10;;;10.80;92.80;;;;;;5057404;28;20943;-46
2023/11/14 09:25:30;;;;;;;14.73;2.50;;;10.80;92.70;;;;;;5057118;28;21019;-46
2023/11/14 09:27:59;;;;;;;8.53;2.20;;;10.80;92.70;;;;;;5065948;28;20519;-46
2023/11/14 09:30:29;;;;;;;7.90;2.50;;;10.80;92.80;;;;;;5054582;28;20527;-46
2023/11/14 09:32:57;;;;;;;6.03;2.30;;;10.80;92.60;;;;;;5062184;28;20443;-45
2023/11/14 09:35:26;;;;;;;11.40;2.20;;;10.80;92.80;;;;;;5053668;28;20491;-46
2023/11/14 09:37:54;;;;;;;7.40;3.00;;;10.80;92.40;;;;;;5061863;28;20450;-45
2023/11/14 09:40:25;;;;;;;7.40;2.37;;;10.80;92.50;;;;;;5053976;28;20557;-46
2023/11/14 09:42:54;;;;;;;5.43;2.57;;;10.80;92.70;;;;;;5051076;28;20802;-46
2023/11/14 09:45:24;;;;;;;6.70;2.40;;;10.80;92.50;;;;;;5050399;28;20578;-45
2023/11/14 09:47:54;;;;;;;6.17;1.93;;;10.80;92.50;;;;;;5049858;28;20966;-44
2023/11/14 09:50:23;;;;;;;5.20;2.10;;;10.80;92.50;;;;;;5067934;28;20466;-46
2023/11/14 09:52:57;;;;;;;8.90;2.60;;;10.80;92.50;;;;;;5053566;28;20462;-46
2023/11/14 09:55:25;;;;;;;6.03;2.27;;;10.80;92.40;;;;;;5056817;28;20868;-46
2023/11/14 09:57:55;;;;;;;4.00;1.93;;;10.80;92.60;;;;;;5056017;28;20961;-46
2023/11/14 10:00:27;;;;;;;6.00;1.70;;;10.80;93.80;;;;;;5056077;28;20473;-44
2023/11/14 10:02:57;;;;;;;4.30;1.73;;;10.90;93.60;;;;;;5066375;28;20443;-44
2023/11/14 10:05:25;;;;;;;5.87;1.77;;;10.90;93.30;;;;;;5058897;28;20546;-44
2023/11/14 10:07:55;;;;;;;5.43;2.10;;;10.90;93.00;;;;;;5056068;28;20439;-45
2023/11/14 10:10:23;;;;;;;4.90;1.60;;;10.90;92.90;;;;;;5050458;28;20477;-45
2023/11/14 10:12:52;;;;;;;5.47;1.60;;;10.90;93.00;;;;;;5058667;28;20444;-44
2023/11/14 10:15:32;;;;;;;6.07;2.17;;;10.90;93.00;;;;;;5052752;28;20488;-45
2023/11/14 10:18:02;;;;;;;5.07;1.73;;;10.90;93.10;;;;;;5052943;28;20477;-46
2023/11/14 10:20:38;;;;;;;4.17;1.70;;;10.90;93.30;;;;;;5060962;28;20444;-45
2023/11/14 10:23:15;;;;;;;6.90;2.17;;;10.80;92.90;;;;;;5055439;28;20425;-44
2023/11/14 10:26:04;;;;;;;8.10;1.97;;;10.80;92.90;;;;;;5053637;28;20551;-45
2023/11/14 10:28:33;;;;;;;6.20;1.83;;;10.80;92.70;;;;;;5062337;28;20832;-45
2023/11/14 10:31:04;;;;;;;5.80;2.10;;;10.90;92.80;;;;;;5050522;28;20442;-45
2023/11/14 10:33:44;;;;;;;5.77;2.03;;;10.80;92.80;;;;;;5050240;28;20493;-45
2023/11/14 10:36:15;;;;;;;5.67;2.00;;;10.80;93.00;;;;;;5051718;28;20456;-45
2023/11/14 10:38:43;;;;;;;9.00;2.53;;;10.80;93.00;;;;;;5051386;28;20843;-45
2023/11/14 10:41:11;;;;;;;4.00;1.67;;;10.80;93.00;;;;;;5056563;28;20458;-45
2023/11/14 10:43:40;;;;;;;4.33;1.73;;;10.80;93.00;;;;;;5058701;28;20475;-44
2023/11/14 10:46:14;;;;;;;10.13;2.63;;;10.80;93.00;;;;;;5060041;28;20479;-47
2023/11/14 10:48:43;;;;;;;6.90;2.43;;;10.80;92.90;;;;;;5057224;28;20543;-46
2023/11/14 10:51:12;;;;;;;7.60;2.00;;;10.80;93.00;;;;;;5057565;28;20455;-44
2023/11/14 10:53:41;;;;;;;7.37;2.00;;;10.80;92.90;;;;;;5054061;28;20979;-44
2023/11/14 10:56:15;;;;;;;4.20;2.17;;;10.80;92.90;;;;;;5058663;28;20838;-45
2023/11/14 10:58:44;;;;;;;5.73;1.70;;;10.80;92.90;;;;;;5059373;28;20450;-45
2023/11/14 11:01:14;;;;;;;5.10;1.80;;;10.80;93.00;;;;;;5054084;28;20445;-45
2023/11/14 11:03:43;;;;;;;5.63;1.77;;;10.80;92.90;;;;;;5065560;28;20546;-44
2023/11/14 11:06:13;;;;;;;3.83;1.53;;;10.80;93.10;;;;;;5061077;28;20704;-44
2023/11/14 11:08:41;;;;;;;3.67;1.80;;;10.80;93.00;;;;;;5057306;28;20546;-46
2023/11/14 11:11:10;;;;;;;7.17;1.90;;;10.80;92.90;;;;;;5066211;28;21039;-45
2023/11/14 11:13:40;;;;;;;2.50;1.20;;;10.80;93.00;;;;;;5066762;28;20612;-45
2023/11/14 11:16:09;;;;;;;6.40;1.80;;;10.90;93.10;;;;;;5065363;28;20447;-45
2023/11/14 11:18:41;;;;;;;5.13;2.33;;;10.80;93.30;;;;;;5057353;28;20458;-45
2023/11/14 11:21:11;;;;;;;4.90;1.40;;;10.80;93.20;;;;;;5071774;28;20931;-45
2023/11/14 11:24:10;;;;;;;3.63;1.90;;;10.80;92.80;;;;;;5072171;28;20468;-45
2023/11/14 11:27:15;;;;;;;5.23;1.63;;;10.80;92.80;;;;;;5020267;28;20465;-46
2023/11/14 11:29:48;;;;;;;4.17;1.60;;;10.80;92.70;;;;;;5060832;28;20458;-45
2023/11/14 11:32:35;;;;;;;6.63;1.50;;;10.80;92.90;;;;;;5066197;28;20446;-46
2023/11/14 11:35:27;;;;;;;4.50;1.43;;;10.80;92.80;;;;;;5060386;28;20844;-46
2023/11/14 11:37:58;;;;;;;2.77;1.67;;;10.80;92.70;;;;;;5053575;28;20458;-45
2023/11/14 11:40:28;;;;;;;2.83;1.50;;;10.80;92.70;;;;;;5058819;28;20471;-46
2023/11/14 11:42:58;;;;;;;7.20;1.60;;;10.80;92.70;;;;;;5065424;28;20443;-44
2023/11/14 11:45:34;;;;;;;4.53;1.60;;;10.80;92.80;;;;;;5064426;28;20486;-45
2023/11/14 11:48:02;;;;;;;3.27;1.77;;;10.80;92.70;;;;;;5054020;28;20544;-46
2023/11/14 11:50:33;;;;;;;3.47;1.33;;;10.80;92.70;;;;;;5061071;28;20496;-46
2023/11/14 11:53:04;;;;;;;4.07;2.33;;;10.80;92.90;;;;;;5060692;28;20524;-47
2023/11/14 11:55:32;;;;;;;4.97;2.37;;;10.80;92.70;;;;;;5063273;28;20507;-45
2023/11/14 11:58:02;;;;;;;3.13;1.77;;;10.80;92.70;;;;;;5058863;28;20452;-44
2023/11/14 12:00:31;;;;;;;3.53;1.90;;;10.80;92.70;;;;;;5067402;28;20463;-45
2023/11/14 12:03:00;;;;;;;4.30;2.00;;;10.80;92.60;;;;;;5060616;28;20460;-46
2023/11/14 12:05:29;;;;;;;6.20;2.33;;;10.80;92.70;;;;;;5059047;28;20509;-45
2023/11/14 12:08:00;;;;;;;3.47;1.23;;;10.80;92.70;;;;;;5052086;28;20598;-46
2023/11/14 12:10:29;;;;;;;3.27;1.60;;;10.80;92.70;;;;;;5059196;28;20470;-45
2023/11/14 12:12:58;;;;;;;5.07;1.30;;;10.80;92.70;;;;;;5052868;28;20481;-44
2023/11/14 12:15:28;;;;;;;3.67;1.23;;;10.80;92.70;;;;;;5067577;28;20485;-44
2023/11/14 12:17:57;;;;;;;3.20;1.30;;;10.80;92.90;;;;;;5061162;28;20477;-44
2023/11/14 12:20:26;;;;;;;5.27;2.10;;;10.80;92.90;;;;;;5057529;28;20475;-45
2023/11/14 12:22:55;;;;;;;6.13;1.40;;;10.90;92.80;;;;;;5058633;28;20539;-45
2023/11/14 12:25:25;;;;;;;3.70;2.40;;;10.80;92.80;;;;;;5055939;28;20822;-46
2023/11/14 12:27:58;;;;;;;3.57;1.93;;;10.90;92.80;;;;;;5058582;28;20558;-46
2023/11/14 12:30:29;;;;;;;2.90;1.30;;;10.90;92.90;;;;;;5063425;28;20469;-46
2023/11/14 12:33:08;;;;;;;5.13;1.83;;;10.90;92.80;;;;;;5055686;28;20427;-45
2023/11/14 12:35:45;;;;;;;3.20;1.87;;;10.90;92.80;;;;;;5061080;28;20493;-44
2023/11/14 12:38:13;;;;;;;4.53;1.53;;;10.90;92.90;;;;;;5051862;28;20920;-44
2023/11/14 12:40:43;;;;;;;2.43;1.63;;;10.90;93.10;;;;;;5059381;28;20450;-44
2023/11/14 12:43:12;;;;;;;3.13;1.70;;;10.90;93.00;;;;;;5053552;28;20538;-45
2023/11/14 12:45:47;;;;;;;3.57;1.13;;;10.90;93.00;;;;;;5052519;28;20752;-45
2023/11/14 12:48:15;;;;;;;3.23;1.27;;;10.90;92.90;;;;;;5052317;28;20490;-47
2023/11/14 12:50:43;;;;;;;3.90;1.43;;;10.90;92.90;;;;;;5061538;28;20432;-46
2023/11/14 12:53:12;;;;;;;3.57;2.03;;;10.90;93.00;;;;;;5059396;28;20455;-46
2023/11/14 12:55:41;;;;;;;4.70;1.80;;;10.90;92.80;;;;;;5061066;28;20528;-46
2023/11/14 12:58:10;;;;;;;7.37;1.40;;;10.90;93.00;;;;;;5058251;28;20438;-45